• Join FlightAware (Why Join?)
  • Login
  • US Flag 
04:24AM EDT


 

Airport Tracker/Info


-or-


 

Live Flight TrackerFlight Track Log ✈ GGA1 ✈ 21-Jun-2013 ✈ KSSI - KAHN

Flight Track Log - Related Links

Times and Time Zones

All times are in EDT time to prevent confusion due to time zone crossing. See the GGA1 flight status page for this flight to view local times or setup timezone preferences in your user account.

Time Position Orientation Groundspeed Altitude Reporting Facility
EDT Latitude Longitude Course Direction KTS MPH feet Rate Location/Type
01:48PM 31.2403 -81.4931 330° Northwest 239 275 3,900  Level Jacksonville Center
01:49PM 31.2781 -81.5192 329° Northwest 178 205 5,600 1,740 Climbing Jacksonville Center
01:50PM 31.3158 -81.5478 327° Northwest 166 191 7,400 1,860 Climbing Jacksonville Center
01:51PM 31.3642 -81.5786 331° Northwest 171 197 9,400 2,040 Climbing Jacksonville Center
01:52PM 31.4042 -81.6000 335° Northwest 171 197 11,500 2,040 Climbing Jacksonville Center
01:53PM 31.4712 -81.5974 330° Northwest  Level FlightAware Approximate
01:53PM 31.4503 -81.6311 330° Northwest 171 197 13,500  Level Jacksonville Center
01:54PM 31.4883 -81.6575 329° Northwest 171 197 15,100 1,620 Climbing Jacksonville Center
01:55PM 31.5364 -81.6836 335° Northwest 176 203 16,800 1,500 Climbing Jacksonville Center
01:56PM 31.5869 -81.7194 329° Northwest 183 211 18,100 540 Climbing Jacksonville Center
01:57PM 31.6311 -81.7678 317° Northwest 221 254 18,000 -60 Descending Jacksonville Center
01:58PM 31.6881 -81.8331 316° Northwest 245 282 18,000  Level Jacksonville Center
01:59PM 31.7408 -81.8933 316° Northwest 257 296 18,000  Level Jacksonville Center
02:00PM 31.7914 -81.9492 317° Northwest 262 302 18,000  Level Jacksonville Center
02:01PM 31.8503 -82.0169 316° Northwest 268 308 18,000  Level Jacksonville Center
02:02PM 31.9050 -82.0800 316° Northwest 274 315 18,000  Level Jacksonville Center
02:03PM 31.9556 -82.1336 318° Northwest 274 315 18,000  Level Jacksonville Center
02:04PM 32.0164 -82.2042 315° West 274 315 18,000  Level Jacksonville Center
02:05PM 32.0647 -82.2600 316° Northwest 274 315 18,000  Level Jacksonville Center
02:06PM 32.1214 -82.3233 317° Northwest 279 321 18,000  Level Jacksonville Center
02:07PM 32.1803 -82.3919 315° West 279 321 18,000  Level Jacksonville Center
02:08PM 32.2325 -82.4531 315° West 279 321 18,000  Level Jacksonville Center
02:09PM 32.2892 -82.5167 317° Northwest 279 321 18,000  Level Jacksonville Center
02:10PM 32.3347 -82.5664 317° Northwest 281 323 18,000  Level Atlanta Center
02:11PM 32.3897 -82.6319 315° West 275 316 18,000  Level Atlanta Center
02:12PM 32.4447 -82.6975 315° West 280 322 18,000  Level Atlanta Center
02:13PM 32.4997 -82.7631 315° West 280 322 18,000  Level Atlanta Center
02:14PM 32.5567 -82.8264 317° Northwest 275 316 18,000  Level Atlanta Center
02:15PM 32.6261 -82.8647 335° Northwest 275 316 18,000  Level Atlanta Center
02:16PM 32.7033 -82.8811 350° North 275 316 18,000  Level Atlanta Center
02:17PM 32.7808 -82.9072 344° North 275 316 18,000  Level Atlanta Center
02:18PM 32.8561 -82.9333 344° North 275 316 18,000 -240 Level Atlanta Center
02:19PM 32.9336 -82.9622 343° North 280 322 17,600 -720 Descending Atlanta Center
02:20PM 33.0111 -82.9908 343° North 287 330 16,600 -1,140 Descending Atlanta Center
02:21PM 33.0825 -83.0225 340° North 287 330 15,400 -1,200 Descending Atlanta Center
02:22PM 33.1703 -83.0511 345° North 293 337 14,300 -1,260 Descending Atlanta Center
02:23PM 33.2542 -83.0800 344° North 298 343 12,900 -1,500 Descending Atlanta Center
02:24PM 33.3275 -83.1139 339° North 298 343 11,400 -1,020 Descending Atlanta Center
02:25PM 33.4089 -83.1381 346° North 298 343 10,900 -660 Descending Atlanta Center
02:26PM 33.4739 -83.1572 346° North 279 321 10,100 -1,200 Descending Atlanta Center
02:27PM 33.5492 -83.1814 345° North 279 321 8,500 -1,620 Descending Atlanta Center
02:28PM 33.6183 -83.2156 338° Northwest 279 321 6,900 -1,800 Descending Atlanta Center
02:29PM 33.6731 -83.2825 314° West 279 321 4,900 -1,740 Descending Atlanta Center
02:30PM 33.7172 -83.3469 309° West 266 306 3,500 -1,200 Descending Atlanta Center
02:31PM 33.7778 -83.3639 347° North 223 257 2,600 -480 Descending Atlanta Center
02:32PM 33.8342 -83.3661 358° North 208 239 2,600 -120 Level Atlanta Center
02:33PM 33.8822 -83.3683 358° North 193 222 2,400 -300 Descending Atlanta Center
02:34PM 33.9406 -83.3753 354° North 182 209 2,000 -420 Descending Atlanta Center
02:36PM 33.9486 -83.3264 337° Northwest  Level Estimated
02:43PM 33.9486 -83.3264 337° Northwest  Level Estimated
02:44PM 33.9486 -83.3264 337° Northwest  Level Estimated
02:45PM 33.9486 -83.3264 337° Northwest  Level Estimated